createdAt,value
2018-10-06T00:01:39.602Z,15.52
2018-10-06T00:04:08.508Z,15.49
2018-10-06T00:06:36.820Z,15.47
2018-10-06T00:09:05.538Z,15.42
2018-10-06T00:11:33.856Z,15.35
2018-10-06T00:14:02.181Z,15.29
2018-10-06T00:16:30.503Z,15.24
2018-10-06T00:18:58.234Z,15.19
2018-10-06T00:21:27.504Z,15.08
2018-10-06T00:23:55.813Z,14.95
2018-10-06T00:26:23.545Z,14.86
2018-10-06T00:28:51.861Z,14.74
2018-10-06T00:31:20.779Z,14.71
2018-10-06T00:33:49.101Z,14.72
2018-10-06T00:36:17.800Z,14.71
2018-10-06T00:38:46.110Z,14.69
2018-10-06T00:41:14.594Z,14.65
2018-10-06T00:43:43.488Z,14.63
2018-10-06T00:46:11.813Z,14.63
2018-10-06T00:48:39.745Z,14.61
2018-10-06T00:51:08.476Z,14.54
2018-10-06T00:53:36.215Z,14.50
2018-10-06T00:56:05.129Z,14.45
2018-10-06T00:58:33.455Z,14.41
2018-10-06T01:01:02.116Z,14.37
2018-10-06T01:03:30.424Z,14.35
2018-10-06T01:05:59.067Z,14.36
2018-10-06T01:08:26.817Z,14.36
2018-10-06T01:10:56.045Z,14.35
2018-10-06T01:13:24.359Z,14.31
2018-10-06T01:15:53.015Z,14.29
2018-10-06T01:18:21.336Z,14.27
2018-10-06T01:20:49.683Z,14.26
2018-10-06T01:23:17.419Z,14.23
2018-10-06T01:25:46.328Z,14.20
2018-10-06T01:28:14.062Z,14.17
2018-10-06T01:30:43.862Z,14.14
2018-10-06T01:33:11.617Z,14.10
2018-10-06T01:35:40.514Z,14.05
2018-10-06T01:38:09.146Z,14.04
2018-10-06T01:40:37.081Z,14.03
2018-10-06T01:43:05.216Z,13.97
2018-10-06T01:45:33.534Z,13.89
2018-10-06T01:48:03.587Z,13.81
2018-10-06T01:50:31.985Z,13.75
2018-10-06T01:53:00.894Z,13.74
2018-10-06T01:55:28.649Z,13.70
2018-10-06T01:57:57.545Z,13.63
2018-10-06T02:00:25.290Z,13.56
2018-10-06T02:02:54.248Z,13.52
2018-10-06T02:05:22.043Z,13.49
2018-10-06T02:07:50.890Z,13.44
2018-10-06T02:10:18.638Z,13.43
2018-10-06T02:12:47.550Z,13.40
2018-10-06T02:15:15.873Z,13.35
2018-10-06T02:17:44.202Z,13.35
2018-10-06T02:20:12.521Z,13.33
2018-10-06T02:22:41.502Z,13.30
2018-10-06T02:25:09.270Z,13.25
2018-10-06T02:27:38.920Z,13.20
2018-10-06T02:30:07.285Z,13.16
2018-10-06T02:32:35.552Z,13.14
2018-10-06T02:35:03.880Z,13.03
2018-10-06T02:37:31.625Z,12.98
2018-10-06T02:39:59.951Z,12.97
2018-10-06T02:42:28.273Z,12.96
2018-10-06T02:44:57.175Z,12.96
2018-10-06T02:47:25.856Z,12.95
2018-10-06T02:49:53.598Z,12.90
2018-10-06T02:52:21.919Z,12.90
2018-10-06T02:54:51.304Z,12.90
2018-10-06T02:57:19.050Z,12.88
2018-10-06T02:59:47.962Z,12.87
2018-10-06T03:02:16.291Z,12.85
2018-10-06T03:04:44.658Z,12.82
2018-10-06T03:07:13.874Z,12.78
2018-10-06T03:09:42.191Z,12.74
2018-10-06T03:12:10.163Z,12.68
2018-10-06T03:14:39.068Z,12.63
2018-10-06T03:17:07.395Z,12.61
2018-10-06T03:19:35.874Z,12.60
2018-10-06T03:22:03.856Z,12.59
2018-10-06T03:24:32.755Z,12.55
2018-10-06T03:27:00.647Z,12.55
2018-10-06T03:29:29.424Z,12.54
2018-10-06T03:31:57.751Z,12.53
2018-10-06T03:34:26.072Z,12.51
2018-10-06T03:36:54.395Z,12.47
2018-10-06T03:39:22.137Z,12.46
2018-10-06T03:41:51.033Z,12.46
2018-10-06T03:44:18.790Z,12.49
2018-10-06T03:46:47.421Z,12.52
2018-10-06T03:49:16.022Z,12.51
2018-10-06T03:51:44.342Z,12.51
2018-10-06T03:54:12.176Z,12.53
2018-10-06T03:56:40.448Z,12.54
2018-10-06T03:59:08.763Z,12.60
2018-10-06T04:01:38.518Z,12.71
2018-10-06T04:04:07.084Z,12.78
2018-10-06T04:06:35.185Z,12.86
2018-10-06T04:09:02.916Z,12.94
2018-10-06T04:11:31.819Z,12.99
2018-10-06T04:14:00.143Z,13.01
2018-10-06T04:16:27.880Z,13.01
2018-10-06T04:18:56.797Z,13.02
2018-10-06T04:21:24.565Z,13.02
2018-10-06T04:23:53.466Z,13.00
2018-10-06T04:26:21.787Z,12.99
2018-10-06T04:28:51.199Z,13.01
2018-10-06T04:31:18.962Z,12.96
2018-10-06T04:33:47.289Z,12.95
2018-10-06T04:36:15.630Z,12.93
2018-10-06T04:38:43.956Z,12.91
2018-10-06T04:41:13.094Z,12.90
2018-10-06T04:43:41.193Z,12.88
2018-10-06T04:46:08.941Z,12.85
2018-10-06T04:48:37.848Z,12.85
2018-10-06T04:51:06.424Z,12.81
2018-10-06T04:53:34.515Z,12.77
2018-10-06T04:56:02.293Z,12.77
2018-10-06T04:58:30.636Z,12.72
2018-10-06T05:00:58.971Z,12.69
2018-10-06T05:03:27.999Z,12.67
2018-10-06T05:05:56.303Z,12.66
2018-10-06T05:08:24.654Z,12.63
2018-10-06T05:10:53.580Z,12.66
2018-10-06T05:13:21.324Z,12.74
2018-10-06T05:15:50.228Z,12.75
2018-10-06T05:18:19.737Z,12.75
2018-10-06T05:20:48.059Z,12.77
2018-10-06T05:23:15.583Z,12.77
2018-10-06T05:25:44.497Z,12.79
2018-10-06T05:28:12.253Z,12.80
2018-10-06T05:30:43.898Z,12.81
2018-10-06T05:33:11.660Z,12.81
2018-10-06T05:35:40.009Z,12.83
2018-10-06T05:38:08.920Z,12.88
2018-10-06T05:40:36.669Z,12.90
2018-10-06T05:43:04.996Z,12.88
2018-10-06T05:45:34.365Z,12.91
2018-10-06T05:48:02.687Z,12.93
2018-10-06T05:50:34.692Z,12.95
2018-10-06T05:52:59.799Z,13.03
2018-10-06T05:55:28.183Z,13.09
2018-10-06T05:57:57.100Z,13.15
2018-10-06T06:00:26.826Z,13.20
2018-10-06T06:02:54.563Z,13.23
2018-10-06T06:05:23.927Z,13.27
2018-10-06T06:07:52.274Z,13.31
2018-10-06T06:10:22.785Z,13.37
2018-10-06T06:12:51.127Z,13.44
2018-10-06T06:15:19.783Z,13.49
2018-10-06T06:17:48.102Z,13.85
2018-10-06T06:20:16.433Z,14.91
2018-10-06T06:22:44.224Z,14.81
2018-10-06T06:25:13.922Z,14.60
2018-10-06T06:27:42.843Z,14.46
2018-10-06T06:30:11.169Z,14.43
2018-10-06T06:32:39.512Z,14.40
2018-10-06T06:35:07.860Z,14.31
2018-10-06T06:37:35.612Z,14.30
2018-10-06T06:40:03.945Z,14.34
2018-10-06T06:42:32.280Z,14.35
2018-10-06T06:45:00.610Z,14.40
2018-10-06T06:47:29.813Z,14.47
2018-10-06T06:49:57.556Z,14.56
2018-10-06T06:52:26.467Z,14.68
2018-10-06T06:54:54.268Z,14.79
2018-10-06T06:57:23.361Z,14.84
2018-10-06T06:59:51.117Z,14.92
2018-10-06T07:02:20.801Z,15.01
2018-10-06T07:04:49.130Z,15.11
2018-10-06T07:07:18.233Z,15.17
2018-10-06T07:09:45.987Z,15.26
2018-10-06T07:12:14.459Z,15.33
2018-10-06T07:14:42.682Z,15.43
2018-10-06T07:17:11.610Z,15.51
2018-10-06T07:19:39.944Z,15.57
2018-10-06T07:22:08.296Z,15.62
2018-10-06T07:24:36.641Z,15.65
2018-10-06T07:27:04.364Z,15.70
2018-10-06T07:29:33.269Z,15.76
2018-10-06T07:32:01.607Z,15.83
2018-10-06T07:34:29.939Z,15.87
2018-10-06T07:36:57.682Z,15.93
2018-10-06T07:39:26.016Z,15.94
2018-10-06T07:41:54.926Z,15.98
2018-10-06T07:44:23.077Z,16.05
2018-10-06T07:46:51.007Z,16.11
2018-10-06T07:49:19.933Z,16.16
2018-10-06T07:51:48.264Z,16.22
2018-10-06T07:54:17.744Z,16.26
2018-10-06T07:56:44.524Z,16.27
2018-10-06T07:59:13.479Z,16.31
2018-10-06T08:01:41.751Z,16.34
2018-10-06T08:04:10.084Z,16.37
2018-10-06T08:06:38.413Z,16.43
2018-10-06T08:09:06.739Z,16.48
2018-10-06T08:11:35.078Z,16.54
2018-10-06T08:14:03.870Z,16.56
2018-10-06T08:16:32.996Z,16.61
2018-10-06T08:19:01.907Z,16.64
2018-10-06T08:21:30.234Z,16.62
2018-10-06T08:23:58.394Z,16.66
2018-10-06T08:26:26.883Z,16.68
2018-10-06T08:28:54.739Z,16.76
2018-10-06T08:31:23.591Z,16.84
2018-10-06T08:33:51.351Z,16.93
2018-10-06T08:36:20.271Z,17.04
2018-10-06T08:38:48.599Z,17.11
2018-10-06T08:41:16.364Z,17.16
2018-10-06T08:43:45.285Z,17.26
2018-10-06T08:46:13.246Z,17.34
2018-10-06T08:48:41.934Z,17.42
2018-10-06T08:51:09.842Z,17.52
2018-10-06T08:53:38.217Z,17.59
2018-10-06T08:56:06.642Z,17.61
2018-10-06T08:58:35.527Z,17.67
2018-10-06T09:01:03.395Z,17.69
2018-10-06T09:03:32.336Z,17.78
2018-10-06T09:06:00.664Z,17.88
2018-10-06T09:08:28.468Z,17.96
2018-10-06T09:10:57.414Z,18.02
2018-10-06T09:13:25.728Z,18.06
2018-10-06T09:15:53.771Z,18.14
2018-10-06T09:18:21.889Z,18.18
2018-10-06T09:20:50.804Z,18.22
2018-10-06T09:23:19.190Z,18.30
2018-10-06T09:25:47.501Z,18.37
2018-10-06T09:28:15.293Z,18.41
2018-10-06T09:30:44.197Z,18.44
2018-10-06T09:33:12.521Z,18.49
2018-10-06T09:35:41.017Z,18.51
2018-10-06T09:38:09.380Z,18.58
2018-10-06T09:40:37.173Z,18.66
2018-10-06T09:43:06.161Z,18.73
2018-10-06T09:45:33.946Z,18.71
2018-10-06T09:48:02.869Z,18.72
2018-10-06T09:50:31.494Z,18.77
2018-10-06T09:53:00.437Z,18.82
2018-10-06T09:55:28.182Z,18.92
2018-10-06T09:57:56.570Z,18.98
2018-10-06T10:00:25.464Z,19.00
2018-10-06T10:02:53.865Z,19.01
2018-10-06T10:05:22.247Z,19.07
2018-10-06T10:07:50.547Z,19.14
2018-10-06T10:10:18.872Z,19.20
2018-10-06T10:12:46.651Z,19.25
2018-10-06T10:15:16.292Z,19.31
2018-10-06T10:17:44.757Z,19.37
2018-10-06T10:20:13.720Z,19.41
2018-10-06T10:22:41.345Z,19.42
2018-10-06T10:25:09.983Z,19.48
2018-10-06T10:27:38.093Z,19.49
2018-10-06T10:30:06.434Z,19.55
2018-10-06T10:32:34.776Z,19.54
2018-10-06T10:35:03.128Z,19.58
2018-10-06T10:37:31.551Z,19.65
2018-10-06T10:39:59.871Z,19.71
2018-10-06T10:42:28.288Z,19.74
2018-10-06T10:44:56.580Z,19.76
2018-10-06T10:47:25.548Z,19.87
2018-10-06T10:49:53.845Z,20.25
2018-10-06T10:52:22.207Z,21.09
2018-10-06T10:54:50.735Z,21.14
2018-10-06T10:57:19.089Z,20.79
2018-10-06T10:59:47.695Z,20.66
2018-10-06T11:02:15.969Z,20.62
2018-10-06T11:04:44.338Z,20.64
2018-10-06T11:07:12.622Z,20.66
2018-10-06T11:09:40.379Z,20.74
2018-10-06T11:12:09.311Z,20.79
2018-10-06T11:14:37.697Z,20.85
2018-10-06T11:17:06.073Z,20.99
2018-10-06T11:19:34.408Z,21.03
2018-10-06T11:22:03.124Z,21.14
2018-10-06T11:24:31.719Z,21.23
2018-10-06T11:27:00.044Z,21.33
2018-10-06T11:29:27.805Z,21.49
2018-10-06T11:31:56.719Z,21.62
2018-10-06T11:34:25.056Z,21.74
2018-10-06T11:36:53.522Z,21.78
2018-10-06T11:39:21.844Z,21.90
2018-10-06T11:41:49.621Z,22.09
2018-10-06T11:44:17.959Z,22.26
2018-10-06T11:46:46.301Z,22.45
2018-10-06T11:49:15.213Z,22.38
2018-10-06T11:51:43.556Z,22.39
2018-10-06T11:54:11.878Z,22.41
2018-10-06T11:56:40.201Z,22.54
2018-10-06T11:59:08.048Z,22.60
2018-10-06T12:01:36.993Z,22.62
2018-10-06T12:04:04.725Z,22.86
2018-10-06T12:06:33.632Z,23.12
2018-10-06T12:09:01.380Z,23.38
2018-10-06T12:11:30.374Z,23.61
2018-10-06T12:13:58.749Z,24.06
2018-10-06T12:16:26.596Z,24.45
2018-10-06T12:18:54.947Z,24.61
2018-10-06T12:21:23.314Z,24.80
2018-10-06T12:23:52.619Z,24.86
2018-10-06T12:26:20.449Z,24.75
2018-10-06T12:28:49.450Z,24.74
2018-10-06T12:31:17.821Z,24.82
2018-10-06T12:33:46.128Z,25.19
2018-10-06T12:36:14.446Z,25.39
2018-10-06T12:38:42.201Z,25.67
2018-10-06T12:41:11.148Z,25.95
2018-10-06T12:43:38.877Z,26.07
2018-10-06T12:46:07.778Z,26.22
2018-10-06T12:48:36.121Z,26.51
2018-10-06T12:51:04.464Z,26.43
2018-10-06T12:53:32.786Z,26.48
2018-10-06T12:56:00.527Z,26.75
2018-10-06T12:58:29.461Z,27.17
2018-10-06T13:00:57.780Z,26.96
2018-10-06T13:03:27.103Z,27.00
2018-10-06T13:05:55.603Z,27.28
2018-10-06T13:08:24.107Z,28.09
2018-10-06T13:10:52.490Z,28.48
2018-10-06T13:16:00.105Z,28.73
2018-10-06T13:18:27.838Z,28.60
2018-10-06T13:20:56.994Z,28.97
2018-10-06T13:23:25.332Z,29.49
2018-10-06T13:25:53.093Z,30.13
2018-10-06T13:28:21.540Z,30.92
2018-10-06T13:30:50.485Z,31.18
2018-10-06T13:33:18.289Z,31.71
2018-10-06T13:35:47.249Z,31.96
2018-10-06T13:38:15.564Z,31.93
2018-10-06T13:40:43.889Z,31.51
2018-10-06T13:43:12.225Z,31.28
2018-10-06T13:45:40.561Z,30.84
2018-10-06T13:48:08.910Z,30.27
2018-10-06T13:50:41.663Z,30.38
2018-10-06T13:53:08.951Z,31.19
2018-10-06T13:55:37.543Z,31.28
2018-10-06T13:58:05.641Z,31.32
2018-10-06T14:00:33.956Z,31.98
2018-10-06T14:03:02.282Z,31.91
2018-10-06T14:05:30.045Z,31.75
2018-10-06T14:07:58.949Z,31.86
2018-10-06T14:10:27.283Z,31.83
2018-10-06T14:12:55.684Z,32.70
2018-10-06T14:15:24.020Z,32.96
2018-10-06T14:17:51.771Z,33.53
2018-10-06T14:20:20.789Z,33.87
2018-10-06T14:22:48.561Z,33.69
2018-10-06T14:25:17.543Z,33.69
2018-10-06T14:27:45.291Z,33.59
2018-10-06T14:30:14.214Z,33.48
2018-10-06T14:32:42.643Z,33.56
2018-10-06T14:35:10.900Z,32.54
2018-10-06T14:37:41.347Z,29.95
2018-10-06T14:40:08.093Z,27.99
2018-10-06T14:42:37.013Z,26.91
2018-10-06T14:45:05.353Z,25.93
2018-10-06T14:47:33.793Z,25.22
2018-10-06T14:50:01.424Z,24.89
2018-10-06T14:52:30.347Z,24.37
2018-10-06T14:54:58.109Z,23.92
2018-10-06T14:57:27.028Z,23.64
2018-10-06T14:59:55.382Z,23.48
2018-10-06T15:02:23.756Z,23.25
2018-10-06T15:04:52.083Z,23.13
2018-10-06T15:07:20.399Z,23.01
2018-10-06T15:09:48.728Z,22.84
2018-10-06T15:12:16.483Z,22.70
2018-10-06T15:14:44.885Z,22.63
2018-10-06T15:17:13.727Z,22.57
2018-10-06T15:19:41.469Z,22.46
2018-10-06T15:22:10.425Z,22.40
2018-10-06T15:24:38.175Z,22.23
2018-10-06T15:27:07.124Z,22.06
2018-10-06T15:29:35.670Z,21.94
2018-10-06T15:32:04.015Z,21.75
2018-10-06T15:34:32.961Z,21.61
2018-10-06T15:37:01.261Z,21.52
2018-10-06T15:42:42.872Z,21.43
2018-10-06T15:45:12.312Z,21.34
2018-10-06T15:47:40.676Z,21.19
2018-10-06T15:50:09.006Z,21.04
2018-10-06T15:52:37.572Z,20.88
2018-10-06T15:55:06.240Z,20.76
2018-10-06T15:57:34.557Z,20.65
2018-10-06T16:00:06.662Z,20.60
2018-10-06T16:02:35.375Z,20.59
2018-10-06T16:05:03.074Z,20.61
2018-10-06T16:07:32.213Z,20.58
2018-10-06T16:09:59.736Z,20.44
2018-10-06T16:12:28.693Z,20.24
2018-10-06T16:14:57.062Z,20.05
2018-10-06T16:17:25.384Z,19.83
2018-10-06T16:19:53.728Z,19.69
2018-10-06T16:22:22.074Z,19.56
2018-10-06T16:24:49.858Z,19.41
2018-10-06T16:27:18.256Z,19.24
2018-10-06T16:29:47.257Z,19.06
2018-10-06T16:32:16.168Z,18.92
2018-10-06T16:34:44.741Z,18.77
2018-10-06T16:37:12.871Z,18.62
2018-10-06T16:39:41.196Z,18.53
2018-10-06T16:42:09.535Z,18.36
2018-10-06T16:44:37.864Z,18.23
2018-10-06T16:47:06.008Z,18.07
2018-10-06T16:49:34.339Z,18.00
2018-10-06T16:52:03.625Z,17.89
2018-10-06T16:54:31.882Z,17.81
2018-10-06T16:56:59.642Z,17.80
2018-10-06T16:59:28.013Z,17.86
2018-10-06T17:01:56.981Z,17.82
2018-10-06T17:04:25.307Z,17.65
2018-10-06T17:06:53.597Z,17.49
2018-10-06T17:09:21.927Z,17.40
2018-10-06T17:11:49.712Z,17.35
2018-10-06T17:14:18.645Z,17.38
2018-10-06T17:16:47.475Z,17.40
2018-10-06T17:19:15.846Z,17.47
2018-10-06T17:21:44.556Z,17.58
2018-10-06T17:24:12.957Z,17.65
2018-10-06T17:26:41.281Z,17.72
2018-10-06T17:29:11.588Z,17.73
2018-10-06T17:31:37.844Z,17.74
2018-10-06T17:34:06.779Z,17.76
2018-10-06T17:36:34.567Z,17.71
2018-10-06T17:39:04.131Z,17.69
2018-10-06T17:41:32.304Z,17.68
2018-10-06T17:44:00.645Z,17.54
2018-10-06T17:46:28.977Z,17.52
2018-10-06T17:48:57.520Z,17.52
2018-10-06T17:51:25.289Z,17.50
2018-10-06T17:53:53.631Z,17.48
2018-10-06T17:56:22.684Z,17.43
2018-10-06T17:58:51.126Z,17.43
2018-10-06T18:01:19.442Z,17.38
2018-10-06T18:03:47.202Z,17.37
2018-10-06T18:06:16.182Z,17.34
2018-10-06T18:08:43.959Z,17.30
2018-10-06T18:11:12.885Z,17.27
2018-10-06T18:13:41.258Z,17.24
2018-10-06T18:16:09.017Z,17.21
2018-10-06T18:18:37.962Z,17.22
2018-10-06T18:21:06.832Z,17.17
2018-10-06T18:23:34.913Z,17.18
2018-10-06T18:26:02.735Z,17.19
2018-10-06T18:28:31.659Z,17.18
2018-10-06T18:31:00.101Z,17.17
2018-10-06T18:33:29.788Z,17.15
2018-10-06T18:35:57.969Z,17.15
2018-10-06T18:38:26.317Z,17.13
2018-10-06T18:40:55.294Z,17.14
2018-10-06T18:43:23.776Z,17.13
2018-10-06T18:45:52.111Z,17.10
2018-10-06T18:48:21.516Z,17.10
2018-10-06T18:50:50.432Z,17.11
2018-10-06T18:53:18.794Z,17.08
2018-10-06T18:55:47.175Z,17.07
2018-10-06T18:58:15.565Z,17.06
2018-10-06T19:00:44.365Z,17.03
2018-10-06T19:03:12.168Z,17.02
2018-10-06T19:05:41.071Z,17.01
2018-10-06T19:08:09.628Z,16.98
2018-10-06T19:10:37.924Z,16.99
2018-10-06T19:13:07.040Z,16.97
2018-10-06T19:15:35.455Z,16.97
2018-10-06T19:18:05.155Z,16.97
2018-10-06T19:20:32.962Z,16.94
2018-10-06T19:23:02.115Z,16.95
2018-10-06T19:25:31.253Z,16.94
2018-10-06T19:27:59.043Z,16.95
2018-10-06T19:30:27.410Z,16.97
2018-10-06T19:32:56.434Z,16.98
2018-10-06T19:35:25.376Z,16.95
2018-10-06T19:37:53.674Z,16.93
2018-10-06T19:40:22.035Z,16.90
2018-10-06T19:42:50.386Z,16.94
2018-10-06T19:45:18.750Z,16.91
2018-10-06T19:47:47.306Z,16.91
2018-10-06T19:50:15.663Z,16.93
2018-10-06T19:52:44.949Z,16.94
2018-10-06T19:55:13.302Z,16.96
2018-10-06T19:57:41.050Z,16.95
2018-10-06T20:00:10.197Z,16.94
2018-10-06T20:02:38.672Z,16.92
2018-10-06T20:05:07.016Z,16.93
2018-10-06T20:07:35.363Z,16.90
2018-10-06T20:10:03.753Z,16.91
2018-10-06T20:12:32.220Z,16.93
2018-10-06T20:15:00.477Z,16.96
2018-10-06T20:17:28.798Z,16.95
2018-10-06T20:19:56.558Z,16.95
2018-10-06T20:22:25.729Z,16.94
2018-10-06T20:24:54.378Z,16.92
2018-10-06T20:27:24.095Z,16.91
2018-10-06T20:29:52.434Z,16.92
2018-10-06T20:32:20.780Z,16.90
2018-10-06T20:34:49.393Z,16.90
2018-10-06T20:37:17.544Z,16.89
2018-10-06T20:39:45.869Z,16.96
2018-10-06T20:42:14.223Z,16.93
2018-10-06T20:44:42.557Z,16.92
2018-10-06T20:47:10.329Z,16.93
2018-10-06T20:49:39.256Z,16.93
2018-10-06T20:52:12.414Z,16.91
2018-10-06T20:54:41.326Z,16.87
2018-10-06T20:57:09.140Z,16.86
2018-10-06T20:59:38.013Z,16.77
2018-10-06T21:02:06.408Z,16.70
2018-10-06T21:04:34.693Z,16.61
2018-10-06T21:07:03.058Z,16.54
2018-10-06T21:09:31.425Z,16.50
2018-10-06T21:11:59.774Z,16.50
2018-10-06T21:14:28.115Z,16.56
2018-10-06T21:16:56.479Z,16.63
2018-10-06T21:19:24.817Z,16.67
2018-10-06T21:21:52.674Z,16.69
2018-10-06T21:24:21.598Z,16.67
2018-10-06T21:26:49.339Z,16.64
2018-10-06T21:29:17.870Z,16.68
2018-10-06T21:31:46.716Z,16.65
2018-10-06T21:34:15.066Z,16.67
2018-10-06T21:36:43.525Z,16.69
2018-10-06T21:39:13.361Z,16.70
2018-10-06T21:41:42.220Z,16.70
2018-10-06T21:44:11.829Z,16.65
2018-10-06T21:46:40.254Z,16.65
2018-10-06T21:49:11.744Z,16.63
2018-10-06T21:51:40.048Z,16.65
2018-10-06T21:54:10.151Z,16.59
2018-10-06T21:56:40.059Z,16.57
2018-10-06T21:59:09.655Z,16.48
2018-10-06T22:01:40.470Z,16.33
2018-10-06T22:04:09.909Z,16.21
2018-10-06T22:06:39.580Z,16.22
2018-10-06T22:09:07.941Z,16.21
2018-10-06T22:11:36.284Z,16.25
2018-10-06T22:14:05.591Z,16.30
2018-10-06T22:16:33.342Z,16.36
2018-10-06T22:19:02.276Z,16.39
2018-10-06T22:21:30.062Z,16.38
2018-10-06T22:23:58.958Z,16.38
2018-10-06T22:26:26.727Z,16.36
2018-10-06T22:28:55.064Z,16.36
2018-10-06T22:31:23.971Z,16.35
2018-10-06T22:33:51.728Z,16.26
2018-10-06T22:36:20.073Z,16.21
2018-10-06T22:38:48.578Z,16.20
2018-10-06T22:41:17.343Z,16.18
2018-10-06T22:43:46.078Z,16.20
2018-10-06T22:46:13.793Z,16.17
2018-10-06T22:48:42.773Z,16.20
2018-10-06T22:51:11.102Z,16.25
2018-10-06T22:53:38.861Z,16.29
2018-10-06T22:56:07.201Z,16.32
2018-10-06T22:58:35.854Z,16.31
2018-10-06T23:01:04.182Z,16.24
2018-10-06T23:03:33.104Z,16.13
2018-10-06T23:06:00.858Z,16.10
2018-10-06T23:08:37.635Z,16.05
2018-10-06T23:11:06.015Z,15.97
2018-10-06T23:13:33.766Z,15.88
2018-10-06T23:16:02.693Z,15.81
2018-10-06T23:18:30.569Z,15.77
2018-10-06T23:20:59.371Z,15.77
2018-10-06T23:23:27.722Z,15.86
2018-10-06T23:25:56.104Z,15.95
2018-10-06T23:28:24.427Z,15.99
2018-10-06T23:30:52.186Z,16.01
2018-10-06T23:33:21.093Z,16.04
2018-10-06T23:35:48.853Z,16.06
2018-10-06T23:38:17.782Z,16.06
2018-10-06T23:40:46.212Z,16.07
2018-10-06T23:43:14.551Z,16.08
2018-10-06T23:45:42.299Z,16.11
2018-10-06T23:48:11.214Z,16.11
2018-10-06T23:50:38.971Z,16.09
2018-10-06T23:53:07.303Z,16.06
2018-10-06T23:55:36.219Z,16.06
2018-10-06T23:58:04.136Z,16.04
